createdAt,value
2018-08-30T00:04:26.578Z,57.75
2018-08-30T00:09:29.755Z,58.22
2018-08-30T00:14:33.474Z,59.42
2018-08-30T00:19:36.689Z,58.67
2018-08-30T00:24:39.997Z,59.63
2018-08-30T00:29:43.341Z,59.57
2018-08-30T00:34:46.647Z,60.72
2018-08-30T00:39:49.821Z,60.90
2018-08-30T00:44:53.090Z,60.80
2018-08-30T00:49:56.361Z,61.54
2018-08-30T00:54:59.536Z,61.19
2018-08-30T01:00:03.147Z,60.42
2018-08-30T01:05:06.400Z,60.93
2018-08-30T01:10:09.670Z,61.33
2018-08-30T01:15:13.135Z,61.90
2018-08-30T01:20:16.620Z,62.23
2018-08-30T01:25:19.863Z,62.62
2018-08-30T01:30:23.016Z,62.50
2018-08-30T01:35:26.176Z,61.92
2018-08-30T01:40:29.314Z,62.67
2018-08-30T01:45:32.521Z,63.05
2018-08-30T01:50:35.702Z,62.54
2018-08-30T01:55:39.380Z,63.23
2018-08-30T02:00:42.839Z,63.11
2018-08-30T02:05:46.048Z,63.80
2018-08-30T02:10:49.556Z,64.22
2018-08-30T02:15:52.987Z,64.80
2018-08-30T02:20:56.442Z,65.09
2018-08-30T02:25:59.611Z,64.75
2018-08-30T02:31:02.836Z,64.76
2018-08-30T02:36:05.998Z,64.74
2018-08-30T02:41:09.342Z,65.29
2018-08-30T02:46:12.572Z,64.64
2018-08-30T02:51:15.811Z,64.52
2018-08-30T02:56:19.193Z,64.14
2018-08-30T03:01:22.345Z,64.14
2018-08-30T03:06:25.522Z,64.39
2018-08-30T03:11:28.680Z,63.86
2018-08-30T03:16:33.207Z,63.13
2018-08-30T03:21:36.581Z,64.36
2018-08-30T03:26:39.823Z,63.89
2018-08-30T03:31:43.063Z,62.19
2018-08-30T03:36:46.243Z,61.43
2018-08-30T03:41:49.452Z,62.20
2018-08-30T03:46:52.681Z,61.97
2018-08-30T03:51:55.861Z,62.32
2018-08-30T03:56:59.251Z,62.64
2018-08-30T04:02:02.577Z,62.63
2018-08-30T04:07:05.847Z,61.23
2018-08-30T04:12:09.244Z,61.47
2018-08-30T04:17:12.513Z,61.37
2018-08-30T04:22:15.952Z,60.63
2018-08-30T04:27:20.598Z,62.07
2018-08-30T04:32:24.072Z,60.94
2018-08-30T04:37:27.297Z,63.82
2018-08-30T04:42:30.999Z,65.31
2018-08-30T04:47:34.371Z,70.28
2018-08-30T04:52:37.752Z,68.77
2018-08-30T04:57:40.964Z,71.42
2018-08-30T05:02:44.187Z,72.20
2018-08-30T05:07:47.374Z,72.47
2018-08-30T05:12:51.643Z,72.62
2018-08-30T05:17:54.736Z,73.96
2018-08-30T05:22:58.019Z,72.07
2018-08-30T05:28:01.280Z,71.90
2018-08-30T05:33:04.737Z,72.99
2018-08-30T05:38:07.980Z,73.16
2018-08-30T05:43:11.875Z,73.50
2018-08-30T05:48:15.010Z,75.34
2018-08-30T05:53:19.355Z,74.61
2018-08-30T05:58:22.936Z,76.14
2018-08-30T06:03:26.278Z,74.30
2018-08-30T06:08:29.714Z,73.45
2018-08-30T06:13:33.308Z,72.75
2018-08-30T06:18:37.929Z,74.30
2018-08-30T06:23:42.020Z,73.67
2018-08-30T06:28:45.178Z,72.68
2018-08-30T06:33:48.640Z,72.78
2018-08-30T06:38:52.049Z,76.12
2018-08-30T06:43:55.145Z,77.74
2018-08-30T06:48:58.431Z,79.37
2018-08-30T06:54:02.074Z,78.99
2018-08-30T06:59:05.528Z,79.07
2018-08-30T07:04:09.224Z,78.26
2018-08-30T07:09:12.306Z,79.78
2018-08-30T07:14:15.926Z,78.00
2018-08-30T07:19:19.101Z,78.48
2018-08-30T07:24:22.429Z,76.40
2018-08-30T07:29:25.604Z,75.42
2018-08-30T07:34:29.047Z,73.68
2018-08-30T07:39:32.264Z,74.38
2018-08-30T07:44:36.045Z,76.73
2018-08-30T07:49:39.228Z,76.36
2018-08-30T07:54:44.624Z,76.66
2018-08-30T07:59:48.036Z,77.21
2018-08-30T08:04:51.193Z,77.25
2018-08-30T08:09:54.426Z,78.59
2018-08-30T08:14:57.680Z,78.04
2018-08-30T08:20:00.997Z,77.95
2018-08-30T08:25:05.276Z,80.84
2018-08-30T08:30:08.472Z,78.68
2018-08-30T08:35:11.728Z,76.55
2018-08-30T08:40:15.061Z,77.49
2018-08-30T08:45:18.305Z,76.00
2018-08-30T08:50:23.996Z,76.66
2018-08-30T08:55:27.233Z,77.84
2018-08-30T09:00:30.465Z,77.82
2018-08-30T09:05:33.690Z,76.50
2018-08-30T09:10:36.915Z,72.73
2018-08-30T09:15:40.041Z,73.16
2018-08-30T09:20:43.304Z,74.73
2018-08-30T09:25:46.469Z,76.38
2018-08-30T09:30:49.671Z,76.40
2018-08-30T09:35:52.910Z,75.59
2018-08-30T09:40:56.109Z,75.11
2018-08-30T09:45:59.377Z,75.54
2018-08-30T09:51:02.613Z,75.32
2018-08-30T09:56:06.210Z,76.20
2018-08-30T10:01:09.592Z,76.54
2018-08-30T10:06:12.979Z,76.24
2018-08-30T10:11:16.222Z,75.57
2018-08-30T10:16:19.609Z,79.13
2018-08-30T10:21:22.895Z,80.95
2018-08-30T10:26:26.815Z,80.72
2018-08-30T10:31:30.903Z,80.64
2018-08-30T10:36:34.041Z,80.70
2018-08-30T10:41:37.475Z,78.31
2018-08-30T10:46:42.295Z,77.75
2018-08-30T10:51:45.527Z,76.57
2018-08-30T10:56:48.869Z,76.79
2018-08-30T11:01:52.455Z,76.89
2018-08-30T11:06:56.145Z,75.91
2018-08-30T11:12:00.027Z,75.15
2018-08-30T11:17:03.673Z,77.64
2018-08-30T11:22:06.912Z,77.96
2018-08-30T11:27:10.125Z,79.21
2018-08-30T11:32:13.571Z,81.83
2018-08-30T11:37:16.800Z,81.12
2018-08-30T11:42:20.074Z,80.80
2018-08-30T11:47:23.904Z,78.40
2018-08-30T11:52:27.154Z,74.58
2018-08-30T11:57:31.005Z,73.62
2018-08-30T12:02:34.214Z,74.52
2018-08-30T12:07:37.475Z,71.16
2018-08-30T12:12:40.670Z,66.57
2018-08-30T12:17:44.038Z,68.87
2018-08-30T12:22:47.347Z,71.67
2018-08-30T12:27:50.540Z,72.60
2018-08-30T12:32:53.777Z,75.07
